Praha, Texas
Current Conditions -  °F | °C
As of 9:15 AM on Monday 24 Nov 2014 (Local Time) from K3T5 Reporting Station
Clear Clear  
Wind Chill: 55°   Ceiling: Unl
Heat Index: 55°   Visibility: 10mi
Dew Point: 40°   Wind: 7mph
Humidity: 56%   Direction: 340°NNW
Pressure: 30.06"   Gusts: NA
Location:  29.7626°N, 97.1228°W
Report Text: K3T5 241515Z AUTO 34006KT 10SM CLR 13/04 A3006 RMK AO2 T01290044
Loading
Personal Weather Stations






























Interactive Weather Map New forecast layout! Learn more

10-Day Weather Forecast

Advertisements
Track Severe Weather on mobile